createdAt,value
2018-01-11T00:01:19.726Z,1.90
2018-01-11T00:03:53.462Z,1.90
2018-01-11T00:06:27.211Z,1.90
2018-01-11T00:09:00.933Z,1.80
2018-01-11T00:11:34.487Z,1.80
2018-01-11T00:14:08.173Z,1.70
2018-01-11T00:16:41.925Z,1.70
2018-01-11T00:19:15.618Z,1.70
2018-01-11T00:21:51.063Z,1.70
2018-01-11T00:24:25.626Z,1.70
2018-01-11T00:26:59.332Z,1.70
2018-01-11T00:29:33.073Z,1.60
2018-01-11T00:32:07.210Z,1.60
2018-01-11T00:34:40.893Z,1.60
2018-01-11T00:37:15.483Z,1.60
2018-01-11T00:39:49.325Z,1.60
2018-01-11T00:42:22.896Z,1.60
2018-01-11T00:44:57.726Z,1.60
2018-01-11T00:47:31.424Z,1.60
2018-01-11T00:50:05.052Z,1.70
2018-01-11T00:52:38.768Z,1.70
2018-01-11T00:55:12.695Z,1.70
2018-01-11T00:57:46.445Z,1.70
2018-01-11T01:00:20.209Z,1.70
2018-01-11T01:02:54.742Z,1.60
2018-01-11T01:05:29.060Z,1.50
2018-01-11T01:08:03.550Z,1.40
2018-01-11T01:10:37.277Z,1.40
2018-01-11T01:13:10.965Z,1.40
2018-01-11T01:15:45.511Z,1.50
2018-01-11T01:18:19.174Z,1.60
2018-01-11T01:20:52.899Z,1.50
2018-01-11T01:23:26.655Z,1.50
2018-01-11T01:26:00.202Z,1.40
2018-01-11T01:28:33.922Z,1.30
2018-01-11T01:31:07.452Z,1.30
2018-01-11T01:33:41.092Z,1.20
2018-01-11T01:36:14.642Z,1.10
2018-01-11T01:38:48.411Z,1.10
2018-01-11T01:41:22.088Z,1.20
2018-01-11T01:43:56.866Z,1.20
2018-01-11T01:46:30.549Z,1.20
2018-01-11T01:49:04.181Z,1.10
2018-01-11T01:51:37.782Z,1.10
2018-01-11T01:54:12.925Z,1.10
2018-01-11T01:56:46.895Z,1.10
2018-01-11T01:59:21.388Z,1.00
2018-01-11T02:01:55.032Z,1.00
2018-01-11T02:04:30.324Z,1.00
2018-01-11T02:07:03.922Z,1.10
2018-01-11T02:09:38.625Z,1.10
2018-01-11T02:12:12.172Z,1.10
2018-01-11T02:14:46.936Z,1.00
2018-01-11T02:17:21.388Z,1.00
2018-01-11T02:19:54.946Z,1.00
2018-01-11T02:22:29.977Z,1.00
2018-01-11T02:25:03.987Z,1.00
2018-01-11T02:27:38.511Z,1.00
2018-01-11T02:30:13.064Z,1.00
2018-01-11T02:32:46.605Z,1.00
2018-01-11T02:35:20.357Z,1.00
2018-01-11T02:37:54.066Z,1.10
2018-01-11T02:40:27.809Z,1.20
2018-01-11T02:43:01.454Z,1.30
2018-01-11T02:45:35.766Z,1.40
2018-01-11T02:48:10.103Z,1.40
2018-01-11T02:50:43.805Z,1.40
2018-01-11T02:53:18.328Z,1.50
2018-01-11T02:55:53.063Z,1.50
2018-01-11T02:58:28.059Z,1.60
2018-01-11T03:01:02.600Z,1.70
2018-01-11T03:03:37.453Z,1.70
2018-01-11T03:06:11.159Z,1.70
2018-01-11T03:08:45.333Z,1.70
2018-01-11T03:11:19.107Z,1.70
2018-01-11T03:13:53.356Z,1.70
2018-01-11T03:16:27.877Z,1.60
2018-01-11T03:19:01.621Z,1.50
2018-01-11T03:21:35.394Z,1.40
2018-01-11T03:24:10.051Z,1.30
2018-01-11T03:26:44.704Z,1.20
2018-01-11T03:29:18.375Z,1.10
2018-01-11T03:31:51.932Z,1.10
2018-01-11T03:34:26.573Z,1.10
2018-01-11T03:37:00.822Z,1.10
2018-01-11T03:39:35.493Z,1.10
2018-01-11T03:42:11.199Z,1.10
2018-01-11T03:44:46.148Z,1.00
2018-01-11T03:47:24.611Z,0.90
2018-01-11T03:49:58.318Z,0.90
2018-01-11T03:52:33.599Z,0.70
2018-01-11T03:55:08.278Z,0.70
2018-01-11T03:57:42.836Z,0.80
2018-01-11T04:00:17.745Z,0.80
2018-01-11T04:02:51.410Z,0.80
2018-01-11T04:05:26.752Z,0.90
2018-01-11T04:08:00.419Z,1.00
2018-01-11T04:10:35.864Z,1.10
2018-01-11T04:13:09.434Z,1.10
2018-01-11T04:15:43.934Z,1.20
2018-01-11T04:18:17.669Z,1.20
2018-01-11T04:20:52.164Z,1.20
2018-01-11T04:23:25.924Z,1.20
2018-01-11T04:25:59.492Z,1.20
2018-01-11T04:28:33.812Z,1.30
2018-01-11T04:31:08.319Z,1.30
2018-01-11T04:33:42.072Z,1.30
2018-01-11T04:36:15.849Z,1.40
2018-01-11T04:38:50.369Z,1.50
2018-01-11T04:41:24.108Z,1.50
2018-01-11T04:43:57.852Z,1.50
2018-01-11T04:46:31.609Z,1.60
2018-01-11T04:49:07.272Z,1.60
2018-01-11T04:51:40.834Z,1.70
2018-01-11T04:54:14.537Z,1.70
2018-01-11T04:56:49.065Z,1.80
2018-01-11T04:59:22.752Z,1.80
2018-01-11T05:01:57.088Z,1.90
2018-01-11T05:04:30.770Z,1.90
2018-01-11T05:07:04.509Z,1.90
2018-01-11T05:09:39.163Z,1.90
2018-01-11T05:12:14.392Z,1.90
2018-01-11T05:14:49.533Z,2.00
2018-01-11T05:17:24.084Z,2.10
2018-01-11T05:19:58.807Z,2.20
2018-01-11T05:22:33.272Z,2.20
2018-01-11T05:25:08.541Z,2.20
2018-01-11T05:27:43.041Z,2.30
2018-01-11T05:30:17.557Z,2.50
2018-01-11T05:32:51.339Z,2.40
2018-01-11T05:35:26.321Z,2.50
2018-01-11T05:38:00.795Z,2.60
2018-01-11T05:40:35.443Z,2.60
2018-01-11T05:43:11.692Z,2.70
2018-01-11T05:45:46.104Z,2.70
2018-01-11T05:48:19.704Z,2.70
2018-01-11T05:50:53.959Z,2.70
2018-01-11T05:53:28.089Z,2.80
2018-01-11T05:56:01.767Z,2.80
2018-01-11T05:58:35.413Z,2.80
2018-01-11T06:01:09.595Z,2.90
2018-01-11T06:03:43.156Z,2.80
2018-01-11T06:06:17.683Z,2.80
2018-01-11T06:08:51.486Z,2.80
2018-01-11T06:11:25.938Z,2.80
2018-01-11T06:13:59.674Z,2.80
2018-01-11T06:16:33.275Z,2.70
2018-01-11T06:19:07.124Z,2.70
2018-01-11T06:21:42.427Z,2.60
2018-01-11T06:24:15.990Z,2.60
2018-01-11T06:26:49.552Z,2.50
2018-01-11T06:29:24.740Z,2.50
2018-01-11T06:31:58.365Z,2.40
2018-01-11T06:34:33.049Z,2.40
2018-01-11T06:37:06.757Z,2.40
2018-01-11T06:39:40.500Z,2.50
2018-01-11T06:42:14.074Z,2.50
2018-01-11T06:44:49.136Z,2.50
2018-01-11T06:47:22.823Z,2.50
2018-01-11T06:49:58.252Z,2.50
2018-01-11T06:52:32.569Z,2.50
2018-01-11T06:55:06.284Z,2.50
2018-01-11T06:57:40.227Z,2.50
2018-01-11T07:00:13.850Z,2.60
2018-01-11T07:02:48.987Z,2.70
2018-01-11T07:05:22.842Z,2.80
2018-01-11T07:07:56.504Z,2.80
2018-01-11T07:10:31.022Z,2.90
2018-01-11T07:13:04.741Z,2.90
2018-01-11T07:15:40.156Z,2.90
2018-01-11T07:18:13.850Z,2.90
2018-01-11T07:20:49.090Z,2.90
2018-01-11T07:26:00.637Z,2.90
2018-01-11T07:28:34.337Z,2.80
2018-01-11T07:31:08.173Z,2.80
2018-01-11T07:33:41.851Z,2.80
2018-01-11T07:36:15.441Z,2.70
2018-01-11T07:38:49.062Z,2.60
2018-01-11T07:41:22.856Z,2.60
2018-01-11T07:43:57.388Z,2.60
2018-01-11T07:46:31.899Z,2.60
2018-01-11T07:49:05.630Z,2.50
2018-01-11T07:51:39.163Z,2.50
2018-01-11T07:54:12.916Z,2.50
2018-01-11T07:56:47.709Z,2.50
2018-01-11T07:59:21.457Z,2.40
2018-01-11T08:01:55.124Z,2.50
2018-01-11T08:04:31.134Z,2.50
2018-01-11T08:07:05.830Z,2.50
2018-01-11T08:09:40.041Z,2.50
2018-01-11T08:12:14.196Z,2.50
2018-01-11T08:14:48.322Z,2.40
2018-01-11T08:17:21.971Z,2.40
2018-01-11T08:19:56.385Z,2.40
2018-01-11T08:22:30.332Z,2.40
2018-01-11T08:25:04.019Z,2.40
2018-01-11T08:27:37.790Z,2.40
2018-01-11T08:30:14.068Z,2.40
2018-01-11T08:32:48.588Z,2.40
2018-01-11T08:35:23.091Z,2.50
2018-01-11T08:37:56.826Z,2.40
2018-01-11T08:40:31.325Z,2.50
2018-01-11T08:43:05.029Z,2.40
2018-01-11T08:45:38.761Z,2.50
2018-01-11T08:48:12.308Z,2.50
2018-01-11T08:50:46.361Z,2.40
2018-01-11T08:53:20.080Z,2.40
2018-01-11T08:55:53.760Z,2.30
2018-01-11T08:58:27.372Z,2.30
2018-01-11T09:01:01.537Z,2.30
2018-01-11T09:03:35.165Z,2.30
2018-01-11T09:06:08.892Z,2.30
2018-01-11T09:08:42.551Z,2.20
2018-01-11T09:11:16.186Z,2.30
2018-01-11T09:13:50.516Z,2.50
2018-01-11T09:16:24.307Z,2.50
2018-01-11T09:18:58.052Z,2.60
2018-01-11T09:21:31.847Z,2.60
2018-01-11T09:24:06.344Z,2.60
2018-01-11T09:26:40.046Z,2.70
2018-01-11T09:29:13.778Z,2.80
2018-01-11T09:31:47.530Z,2.90
2018-01-11T09:34:22.144Z,3.00
2018-01-11T09:36:56.480Z,3.00
2018-01-11T09:39:31.966Z,3.10
2018-01-11T09:42:06.947Z,3.20
2018-01-11T09:44:41.602Z,3.10
2018-01-11T09:47:15.190Z,3.20
2018-01-11T09:49:49.624Z,3.30
2018-01-11T09:52:23.438Z,3.40
2018-01-11T09:54:59.704Z,3.50
2018-01-11T09:57:36.925Z,3.50
2018-01-11T10:00:11.087Z,3.50
2018-01-11T10:02:45.623Z,3.50
2018-01-11T10:05:19.308Z,3.50
2018-01-11T10:07:53.853Z,3.40
2018-01-11T10:10:27.475Z,3.40
2018-01-11T10:13:01.209Z,3.40
2018-01-11T10:15:34.921Z,3.40
2018-01-11T10:18:08.672Z,3.40
2018-01-11T10:20:42.431Z,3.30
2018-01-11T10:23:16.178Z,3.40
2018-01-11T10:25:52.297Z,3.50
2018-01-11T10:28:26.568Z,3.50
2018-01-11T10:31:00.848Z,3.60
2018-01-11T10:33:36.195Z,3.70
2018-01-11T10:36:09.818Z,3.70
2018-01-11T10:38:43.367Z,3.60
2018-01-11T10:41:17.162Z,3.70
2018-01-11T10:43:51.145Z,3.70
2018-01-11T10:46:24.791Z,3.70
2018-01-11T10:48:58.376Z,3.80
2018-01-11T10:51:32.024Z,3.80
2018-01-11T10:54:05.733Z,4.00
2018-01-11T10:56:39.490Z,4.10
2018-01-11T10:59:13.272Z,4.10
2018-01-11T11:01:52.633Z,4.30
2018-01-11T11:04:26.417Z,4.30
2018-01-11T11:07:00.120Z,4.40
2018-01-11T11:09:33.863Z,4.30
2018-01-11T11:12:08.526Z,4.30
2018-01-11T11:14:42.188Z,4.30
2018-01-11T11:17:15.897Z,4.30
2018-01-11T11:19:49.676Z,4.30
2018-01-11T11:22:24.134Z,4.30
2018-01-11T11:24:59.509Z,4.30
2018-01-11T11:27:33.728Z,4.40
2018-01-11T11:30:07.437Z,4.40
2018-01-11T11:32:41.124Z,4.40
2018-01-11T11:35:14.686Z,4.50
2018-01-11T11:37:48.390Z,4.60
2018-01-11T11:40:22.093Z,4.70
2018-01-11T11:42:55.803Z,4.80
2018-01-11T11:45:29.374Z,5.00
2018-01-11T11:48:03.146Z,5.10
2018-01-11T11:50:36.754Z,5.10
2018-01-11T11:53:10.432Z,5.30
2018-01-11T11:55:44.001Z,5.40
2018-01-11T11:58:17.769Z,5.60
2018-01-11T12:00:52.409Z,5.60
2018-01-11T12:03:26.068Z,5.60
2018-01-11T12:06:00.745Z,5.80
2018-01-11T12:08:35.288Z,6.00
2018-01-11T12:11:08.840Z,6.20
2018-01-11T12:13:42.628Z,6.30
2018-01-11T12:16:17.128Z,6.50
2018-01-11T12:18:51.487Z,6.50
2018-01-11T12:21:25.087Z,6.70
2018-01-11T12:23:58.687Z,6.90
2018-01-11T12:26:32.360Z,7.00
2018-01-11T12:29:06.919Z,7.10
2018-01-11T12:31:41.269Z,7.10
2018-01-11T12:34:15.728Z,6.70
2018-01-11T12:36:49.360Z,6.70
2018-01-11T12:39:23.132Z,6.60
2018-01-11T12:41:56.764Z,6.60
2018-01-11T12:44:30.799Z,6.70
2018-01-11T12:47:05.300Z,6.90
2018-01-11T12:49:38.976Z,6.80
2018-01-11T12:52:12.696Z,6.90
2018-01-11T12:54:46.437Z,6.90
2018-01-11T12:57:20.387Z,6.90
2018-01-11T12:59:56.735Z,7.10
2018-01-11T13:02:32.898Z,7.20
2018-01-11T13:05:06.664Z,7.30
2018-01-11T13:07:41.755Z,7.30
2018-01-11T13:10:16.557Z,7.20
2018-01-11T13:12:51.107Z,7.20
2018-01-11T13:15:25.701Z,7.20
2018-01-11T13:17:59.337Z,7.20
2018-01-11T13:20:33.717Z,7.10
2018-01-11T13:23:07.515Z,7.00
2018-01-11T13:25:41.440Z,6.90
2018-01-11T13:28:15.228Z,7.00
2018-01-11T13:30:52.191Z,6.90
2018-01-11T13:33:28.358Z,6.90
2018-01-11T13:36:02.066Z,6.90
2018-01-11T13:38:36.917Z,6.90
2018-01-11T13:41:11.805Z,7.00
2018-01-11T13:43:46.376Z,6.80
2018-01-11T13:46:20.223Z,6.80
2018-01-11T13:48:56.168Z,6.90
2018-01-11T13:51:29.797Z,6.90
2018-01-11T13:54:04.159Z,7.00
2018-01-11T13:56:40.906Z,7.00
2018-01-11T13:59:14.906Z,7.00
2018-01-11T14:01:48.586Z,7.10
2018-01-11T14:04:22.532Z,7.20
2018-01-11T14:06:56.466Z,7.20
2018-01-11T14:09:30.733Z,7.20
2018-01-11T14:12:06.236Z,7.20
2018-01-11T14:14:42.147Z,7.20
2018-01-11T14:17:15.761Z,7.20
2018-01-11T14:19:49.326Z,7.20
2018-01-11T14:22:24.174Z,7.20
2018-01-11T14:24:57.866Z,7.20
2018-01-11T14:27:34.264Z,7.20
2018-01-11T14:30:07.866Z,7.10
2018-01-11T14:32:42.008Z,7.10
2018-01-11T14:35:15.743Z,7.20
2018-01-11T14:37:49.452Z,7.10
2018-01-11T14:40:23.058Z,7.00
2018-01-11T14:42:57.674Z,6.80
2018-01-11T14:45:32.269Z,6.80
2018-01-11T14:48:05.880Z,6.70
2018-01-11T14:50:39.610Z,6.70
2018-01-11T14:53:13.652Z,6.60
2018-01-11T14:55:47.541Z,6.50
2018-01-11T14:58:21.640Z,6.40
2018-01-11T15:00:57.737Z,6.30
2018-01-11T15:03:33.681Z,6.20
2018-01-11T15:06:09.981Z,6.20
2018-01-11T15:08:44.391Z,6.10
2018-01-11T15:11:18.131Z,6.00
2018-01-11T15:13:51.890Z,5.90
2018-01-11T15:16:26.783Z,5.80
2018-01-11T15:19:00.425Z,5.70
2018-01-11T15:21:34.191Z,5.50
2018-01-11T15:24:07.871Z,5.40
2018-01-11T15:26:41.585Z,5.30
2018-01-11T15:29:15.854Z,5.20
2018-01-11T15:31:49.560Z,5.10
2018-01-11T15:34:23.314Z,5.00
2018-01-11T15:36:59.043Z,4.90
2018-01-11T15:39:34.498Z,4.80
2018-01-11T15:42:11.178Z,4.70
2018-01-11T15:44:47.782Z,4.50
2018-01-11T15:47:22.476Z,4.50
2018-01-11T15:49:59.764Z,4.40
2018-01-11T15:52:34.271Z,4.30
2018-01-11T15:55:09.881Z,4.10
2018-01-11T15:57:45.936Z,4.00
2018-01-11T16:00:19.723Z,4.00
2018-01-11T16:02:56.153Z,4.00
2018-01-11T16:05:30.021Z,3.90
2018-01-11T16:08:03.703Z,3.90
2018-01-11T16:10:37.892Z,3.80
2018-01-11T16:13:12.160Z,3.80
2018-01-11T16:15:45.851Z,3.80
2018-01-11T16:18:19.560Z,3.80
2018-01-11T16:20:53.105Z,3.80
2018-01-11T16:23:28.508Z,3.80
2018-01-11T16:26:02.153Z,3.70
2018-01-11T16:28:37.800Z,3.80
2018-01-11T16:31:14.554Z,3.70
2018-01-11T16:33:49.932Z,3.70
2018-01-11T16:36:24.008Z,3.70
2018-01-11T16:38:57.549Z,3.70
2018-01-11T16:41:31.861Z,3.80
2018-01-11T16:44:05.551Z,3.70
2018-01-11T16:46:39.262Z,3.80
2018-01-11T16:49:12.957Z,3.80
2018-01-11T16:51:46.642Z,3.80
2018-01-11T16:54:21.082Z,3.90
2018-01-11T16:56:54.669Z,3.90
2018-01-11T16:59:28.409Z,3.90
2018-01-11T17:02:02.199Z,4.00
2018-01-11T17:04:35.905Z,4.00
2018-01-11T17:07:09.684Z,4.00
2018-01-11T17:09:43.264Z,4.00
2018-01-11T17:12:16.828Z,4.10
2018-01-11T17:14:51.488Z,4.10
2018-01-11T17:17:25.207Z,4.10
2018-01-11T17:19:58.942Z,4.10
2018-01-11T17:22:32.573Z,4.00
2018-01-11T17:25:07.131Z,3.90
2018-01-11T17:27:40.876Z,3.90
2018-01-11T17:30:16.220Z,3.90
2018-01-11T17:32:49.855Z,3.90
2018-01-11T17:35:24.341Z,3.90
2018-01-11T17:37:57.969Z,3.90
2018-01-11T17:40:31.748Z,4.00
2018-01-11T17:43:05.394Z,4.00
2018-01-11T17:45:38.992Z,3.90
2018-01-11T17:48:12.694Z,3.90
2018-01-11T17:50:46.556Z,3.80
2018-01-11T17:53:20.893Z,3.80
2018-01-11T17:55:55.507Z,3.80
2018-01-11T17:58:29.084Z,3.90
2018-01-11T18:01:02.856Z,3.90
2018-01-11T18:03:37.312Z,4.00
2018-01-11T18:06:11.697Z,3.90
2018-01-11T18:08:45.348Z,4.00
2018-01-11T18:11:18.970Z,4.00
2018-01-11T18:13:52.704Z,4.00
2018-01-11T18:16:26.408Z,4.00
2018-01-11T18:19:00.760Z,4.00
2018-01-11T18:21:35.240Z,4.10
2018-01-11T18:24:08.760Z,4.10
2018-01-11T18:26:43.829Z,4.10
2018-01-11T18:29:18.236Z,4.10
2018-01-11T18:31:53.151Z,4.20
2018-01-11T18:34:26.777Z,4.10
2018-01-11T18:37:00.384Z,4.10
2018-01-11T18:39:34.823Z,4.10
2018-01-11T18:42:09.439Z,4.10
2018-01-11T18:44:43.062Z,4.00
2018-01-11T18:47:17.370Z,4.00
2018-01-11T18:49:51.020Z,4.10
2018-01-11T18:52:24.592Z,4.10
2018-01-11T18:54:58.349Z,4.10
2018-01-11T18:57:32.123Z,4.10
2018-01-11T19:00:06.586Z,4.00
2018-01-11T19:02:40.318Z,4.00
2018-01-11T19:05:14.884Z,4.00
2018-01-11T19:07:48.540Z,4.00
2018-01-11T19:10:22.953Z,3.90
2018-01-11T19:12:56.561Z,3.90
2018-01-11T19:15:30.297Z,3.90
2018-01-11T19:18:04.032Z,3.80
2018-01-11T19:20:38.785Z,3.80
2018-01-11T19:23:12.420Z,3.80
2018-01-11T19:25:47.016Z,3.70
2018-01-11T19:28:22.335Z,3.70
2018-01-11T19:30:57.812Z,3.60
2018-01-11T19:33:32.950Z,3.70
2018-01-11T19:36:07.450Z,3.60
2018-01-11T19:38:41.972Z,3.60
2018-01-11T19:41:17.474Z,3.60
2018-01-11T19:43:52.056Z,3.60
2018-01-11T19:46:25.656Z,3.60
2018-01-11T19:48:59.379Z,3.60
2018-01-11T19:51:33.128Z,3.60
2018-01-11T19:54:06.884Z,3.60
2018-01-11T19:56:41.324Z,3.60
2018-01-11T19:59:15.845Z,3.70
2018-01-11T20:01:49.433Z,3.70
2018-01-11T20:04:24.095Z,3.70
2018-01-11T20:06:57.693Z,3.70
2018-01-11T20:09:32.207Z,3.70
2018-01-11T20:12:05.955Z,3.70
2018-01-11T20:14:39.642Z,3.70
2018-01-11T20:17:13.469Z,3.70
2018-01-11T20:19:47.180Z,3.70
2018-01-11T20:22:21.708Z,3.80
2018-01-11T20:24:56.288Z,3.80
2018-01-11T20:27:30.032Z,3.70
2018-01-11T20:30:04.626Z,3.80
2018-01-11T20:32:38.295Z,3.70
2018-01-11T20:35:12.057Z,3.70
2018-01-11T20:37:45.852Z,3.70
2018-01-11T20:40:19.545Z,3.60
2018-01-11T20:42:53.370Z,3.60
2018-01-11T20:45:28.316Z,3.60
2018-01-11T20:48:02.249Z,3.60
2018-01-11T20:50:36.064Z,3.60
2018-01-11T20:53:09.662Z,3.60
2018-01-11T20:55:43.404Z,3.60
2018-01-11T20:58:17.184Z,3.60
2018-01-11T21:00:50.954Z,3.60
2018-01-11T21:03:24.724Z,3.60
2018-01-11T21:05:59.173Z,3.60
2018-01-11T21:08:33.697Z,3.70
2018-01-11T21:11:07.320Z,3.70
2018-01-11T21:13:41.118Z,3.70
2018-01-11T21:16:15.113Z,3.70
2018-01-11T21:18:48.824Z,3.70
2018-01-11T21:21:23.519Z,3.60
2018-01-11T21:23:57.218Z,3.60
2018-01-11T21:26:30.920Z,3.60
2018-01-11T21:29:05.921Z,3.60
2018-01-11T21:31:40.291Z,3.50
2018-01-11T21:34:14.691Z,3.60
2018-01-11T21:36:48.238Z,3.60
2018-01-11T21:39:22.009Z,3.60
2018-01-11T21:41:55.634Z,3.60
2018-01-11T21:44:29.413Z,3.70
2018-01-11T21:47:03.145Z,3.60
2018-01-11T21:49:37.619Z,3.60
2018-01-11T21:52:12.433Z,3.60
2018-01-11T21:54:46.176Z,3.60
2018-01-11T21:57:19.886Z,3.60
2018-01-11T21:59:53.562Z,3.50
2018-01-11T22:02:27.265Z,3.50
2018-01-11T22:05:01.029Z,3.40
2018-01-11T22:07:34.770Z,3.40
2018-01-11T22:10:09.318Z,3.50
2018-01-11T22:12:43.037Z,3.50
2018-01-11T22:15:16.806Z,3.60
2018-01-11T22:17:50.548Z,3.70
2018-01-11T22:20:24.335Z,3.70
2018-01-11T22:22:58.071Z,3.70
2018-01-11T22:25:31.942Z,3.70
2018-01-11T22:28:05.701Z,3.80
2018-01-11T22:30:39.476Z,3.80
2018-01-11T22:33:13.615Z,3.80
2018-01-11T22:35:47.178Z,3.80
2018-01-11T22:38:21.847Z,3.80
2018-01-11T22:40:55.615Z,3.80
2018-01-11T22:43:29.373Z,3.90
2018-01-11T22:46:03.097Z,3.90
2018-01-11T22:48:36.866Z,3.90
2018-01-11T22:51:10.567Z,3.90
2018-01-11T22:53:44.367Z,3.90
2018-01-11T22:56:18.151Z,4.00
2018-01-11T22:58:51.686Z,4.00
2018-01-11T23:01:25.423Z,4.00
2018-01-11T23:03:59.132Z,4.00
2018-01-11T23:06:32.911Z,4.00
2018-01-11T23:09:06.655Z,4.00
2018-01-11T23:11:43.364Z,4.00
2018-01-11T23:14:16.967Z,4.00
2018-01-11T23:16:50.752Z,4.00
2018-01-11T23:19:25.259Z,4.00
2018-01-11T23:21:59.681Z,4.00
2018-01-11T23:24:33.405Z,4.00
2018-01-11T23:27:07.571Z,4.00
2018-01-11T23:29:41.203Z,4.00
2018-01-11T23:32:14.986Z,3.90
2018-01-11T23:34:48.686Z,4.00
2018-01-11T23:37:22.492Z,4.00
2018-01-11T23:39:56.920Z,3.90
2018-01-11T23:42:30.526Z,3.90
2018-01-11T23:45:05.061Z,3.90
2018-01-11T23:47:38.662Z,3.90
2018-01-11T23:50:12.394Z,3.90
2018-01-11T23:52:46.118Z,3.90
2018-01-11T23:55:19.864Z,3.90
2018-01-11T23:57:53.600Z,4.00
